Time;durP1;ratioP1;P1;durP2;ratioP2;P2;SDS_P1;SDS_P2;PMS_P1;PMS_P2;Temp;Humidity;BMP_temperature;BMP_pressure;BME280_temperature;BME280_humidity;BME280_pressure;Samples;Min_cycle;Max_cycle;Signal;HPM_P1;HPM_P2
2022/12/01 06:03:35;;;;;;;32.88;15.05;;;4.20;99.90;;;;;;4882641;23;20334;-74
2022/12/01 06:06:01;;;;;;;31.70;15.50;;;4.20;99.90;;;;;;4883432;29;20037;-71
2022/12/01 06:08:27;;;;;;;31.60;16.55;;;4.20;99.90;;;;;;4868849;29;20048;-72
2022/12/01 06:10:53;;;;;;;35.22;16.48;;;4.20;99.90;;;;;;4869136;29;20091;-72
2022/12/01 06:13:18;;;;;;;33.72;16.25;;;4.20;99.90;;;;;;4868780;29;20033;-71
2022/12/01 06:15:44;;;;;;;33.38;15.85;;;4.10;99.90;;;;;;4869106;29;20042;-71
2022/12/01 06:18:10;;;;;;;33.13;16.92;;;4.20;99.90;;;;;;4868674;29;20085;-70
2022/12/01 06:20:36;;;;;;;31.95;16.30;;;4.20;99.90;;;;;;4869296;29;20094;-72
2022/12/01 06:23:01;;;;;;;32.92;16.23;;;4.20;99.90;;;;;;4867284;29;20037;-71
2022/12/01 06:25:27;;;;;;;31.40;16.27;;;4.20;99.90;;;;;;4850188;29;20109;-71
2022/12/01 06:27:57;;;;;;;33.90;17.25;;;4.20;99.90;;;;;;4850937;29;20038;-70
2022/12/01 06:30:24;;;;;;;51.13;26.60;;;4.20;99.90;;;;;;4850527;29;20441;-71
2022/12/01 06:32:49;;;;;;;33.97;17.20;;;4.20;99.90;;;;;;4853674;29;20319;-71
2022/12/01 06:35:15;;;;;;;38.35;18.67;;;4.30;99.90;;;;;;4856890;29;20033;-71
2022/12/01 06:37:41;;;;;;;33.00;16.83;;;4.30;99.90;;;;;;4873140;29;20085;-70
2022/12/01 06:40:07;;;;;;;33.45;16.95;;;4.20;99.90;;;;;;4874395;29;20025;-70
2022/12/01 06:42:33;;;;;;;31.50;16.65;;;4.20;99.90;;;;;;4872276;29;20037;-71
2022/12/01 06:44:58;;;;;;;31.27;16.08;;;4.30;99.90;;;;;;4872521;29;20040;-71
2022/12/01 06:47:24;;;;;;;36.08;17.33;;;4.20;99.90;;;;;;4871919;29;20041;-71
2022/12/01 06:49:50;;;;;;;33.35;16.02;;;4.20;99.90;;;;;;4855724;29;20092;-70
2022/12/01 06:52:15;;;;;;;31.00;16.98;;;4.20;99.90;;;;;;4872003;29;20037;-70
2022/12/01 06:54:41;;;;;;;34.92;16.15;;;4.20;99.90;;;;;;4872346;29;20022;-71
2022/12/01 06:57:07;;;;;;;33.13;15.70;;;4.20;99.90;;;;;;4872278;29;20037;-70
2022/12/01 06:59:32;;;;;;;33.65;16.08;;;4.10;99.90;;;;;;4871890;29;20025;-70
2022/12/01 07:01:58;;;;;;;31.00;16.02;;;4.20;99.90;;;;;;4849000;29;20049;-70
2022/12/01 07:04:24;;;;;;;29.33;15.55;;;4.10;99.90;;;;;;4836976;29;20090;-70
2022/12/01 07:06:50;;;;;;;30.48;15.70;;;4.20;99.90;;;;;;4853894;29;20042;-70
2022/12/01 07:09:15;;;;;;;33.97;16.40;;;4.10;99.90;;;;;;4853012;29;20037;-70
2022/12/01 07:11:41;;;;;;;33.55;17.05;;;4.20;99.90;;;;;;4853421;29;20060;-71
2022/12/01 07:14:30;;;;;;;30.35;15.15;;;4.20;99.90;;;;;;4853428;29;20066;-70
2022/12/01 07:16:57;;;;;;;28.55;15.25;;;4.20;99.90;;;;;;4852426;29;20026;-70
2022/12/01 07:19:23;;;;;;;32.05;16.15;;;4.20;99.90;;;;;;4853075;29;20052;-70
2022/12/01 07:21:49;;;;;;;31.27;16.00;;;4.20;99.90;;;;;;4836975;29;20378;-70
2022/12/01 07:24:15;;;;;;;30.50;15.50;;;4.20;99.90;;;;;;4836208;29;20037;-70
2022/12/01 07:26:41;;;;;;;29.95;15.30;;;4.20;99.90;;;;;;4853239;29;20034;-71
2022/12/01 07:29:08;;;;;;;30.40;16.25;;;4.20;99.90;;;;;;4853362;29;20111;-70
2022/12/01 07:31:34;;;;;;;30.77;16.13;;;4.20;99.90;;;;;;4852319;29;20109;-70
2022/12/01 07:34:00;;;;;;;32.03;16.08;;;4.30;99.90;;;;;;4841774;29;20026;-71
2022/12/01 07:36:26;;;;;;;30.88;15.88;;;4.30;99.90;;;;;;4852631;29;20040;-72
2022/12/01 07:38:51;;;;;;;28.08;15.20;;;4.20;99.90;;;;;;4853018;29;20038;-71
2022/12/01 07:41:18;;;;;;;30.08;15.80;;;4.10;99.90;;;;;;4836609;29;20050;-72
2022/12/01 07:43:44;;;;;;;31.20;15.32;;;4.20;99.90;;;;;;4850969;29;20045;-71
2022/12/01 07:46:16;;;;;;;28.23;14.77;;;4.20;99.90;;;;;;4836397;29;20045;-71
2022/12/01 07:48:42;;;;;;;30.10;16.48;;;4.20;99.90;;;;;;4836502;29;20033;-70
2022/12/01 07:51:10;;;;;;;31.48;15.48;;;4.20;99.90;;;;;;4852479;29;20300;-70
2022/12/01 07:53:37;;;;;;;29.40;14.85;;;4.30;99.90;;;;;;4851101;29;20030;-70
2022/12/01 07:56:04;;;;;;;32.85;15.40;;;4.30;99.90;;;;;;4852657;29;20030;-71
2022/12/01 07:58:30;;;;;;;28.20;15.15;;;4.30;99.90;;;;;;4852178;29;20264;-70
2022/12/01 08:00:57;;;;;;;29.33;15.60;;;4.30;99.90;;;;;;4852666;29;20196;-70
2022/12/01 08:03:22;;;;;;;28.98;15.05;;;4.30;99.90;;;;;;4852266;29;20117;-70
2022/12/01 08:05:58;;;;;;;25.35;14.40;;;4.30;99.90;;;;;;4846325;29;20048;-71
2022/12/01 08:08:25;;;;;;;31.30;16.05;;;4.30;99.90;;;;;;4846034;29;20030;-71
2022/12/01 08:10:51;;;;;;;30.92;16.13;;;4.30;99.90;;;;;;4846489;29;20049;-71
2022/12/01 08:13:18;;;;;;;27.00;14.57;;;4.30;99.90;;;;;;4844337;29;20026;-71
2022/12/01 08:15:44;;;;;;;33.70;16.50;;;4.30;99.90;;;;;;4857587;29;20121;-70
2022/12/01 08:18:10;;;;;;;30.25;15.88;;;4.30;99.90;;;;;;4842701;29;20244;-71
2022/12/01 08:20:35;;;;;;;29.60;15.32;;;4.30;99.90;;;;;;4851088;29;20038;-71
2022/12/01 08:23:02;;;;;;;28.42;14.55;;;4.30;99.90;;;;;;4852040;29;20350;-71
2022/12/01 08:25:28;;;;;;;27.55;15.07;;;4.40;99.90;;;;;;4851191;29;20040;-70
2022/12/01 08:27:54;;;;;;;26.90;14.18;;;4.30;99.90;;;;;;4851872;29;20185;-71
2022/12/01 08:30:20;;;;;;;28.33;15.30;;;4.30;99.90;;;;;;4851010;29;20037;-71
2022/12/01 08:32:46;;;;;;;28.75;14.90;;;4.20;99.90;;;;;;4834824;29;20330;-71
2022/12/01 08:35:12;;;;;;;27.17;14.43;;;4.30;99.90;;;;;;4850389;29;20040;-71
2022/12/01 08:37:38;;;;;;;28.17;15.18;;;4.30;99.90;;;;;;4851553;29;20022;-70
2022/12/01 08:40:04;;;;;;;28.65;14.75;;;4.30;99.90;;;;;;4851406;29;20326;-71
2022/12/01 08:42:30;;;;;;;31.27;14.73;;;4.30;99.90;;;;;;4850821;29;20034;-71
2022/12/01 08:44:55;;;;;;;29.60;14.82;;;4.30;99.90;;;;;;4851083;29;20319;-72
2022/12/01 08:47:21;;;;;;;31.17;14.68;;;4.20;99.90;;;;;;4850934;29;20040;-71
2022/12/01 08:49:47;;;;;;;30.45;15.45;;;4.20;99.90;;;;;;4850904;29;20078;-70
2022/12/01 08:52:13;;;;;;;25.85;14.70;;;4.30;99.90;;;;;;4835002;29;20058;-70
2022/12/01 08:54:38;;;;;;;33.22;14.75;;;4.30;99.90;;;;;;4849569;29;20044;-71
2022/12/01 08:57:04;;;;;;;28.00;14.55;;;4.30;99.90;;;;;;4851368;29;20090;-71
2022/12/01 08:59:30;;;;;;;30.00;15.13;;;4.40;99.90;;;;;;4850301;29;20052;-71
2022/12/01 09:01:56;;;;;;;27.73;14.70;;;4.50;99.90;;;;;;4850845;29;20057;-71
2022/12/01 09:04:24;;;;;;;27.92;14.63;;;4.50;99.90;;;;;;4850604;29;20379;-72
2022/12/01 09:06:55;;;;;;;27.30;14.45;;;4.50;99.90;;;;;;4851023;29;20033;-70
2022/12/01 09:09:27;;;;;;;29.45;14.90;;;4.40;99.90;;;;;;4850822;29;20034;-71
2022/12/01 09:11:54;;;;;;;26.92;14.15;;;4.40;99.90;;;;;;4850790;29;20263;-71
2022/12/01 09:14:21;;;;;;;28.30;14.85;;;4.40;99.90;;;;;;4849716;29;20037;-71
2022/12/01 09:16:51;;;;;;;26.85;13.93;;;4.40;99.90;;;;;;4850738;29;20045;-70
2022/12/01 09:19:18;;;;;;;28.27;14.77;;;4.30;99.90;;;;;;4850237;29;20033;-70
2022/12/01 09:21:44;;;;;;;25.33;13.87;;;4.30;99.90;;;;;;4851017;29;20170;-70
2022/12/01 09:24:13;;;;;;;27.58;13.93;;;4.30;99.90;;;;;;4850762;29;20033;-70
2022/12/01 09:26:38;;;;;;;;;;;4.30;99.90;;;;;;4840167;29;20041;-71
2022/12/01 09:29:07;;;;;;;28.08;14.25;;;4.30;99.90;;;;;;4864095;29;19919;-71
2022/12/01 09:31:33;;;;;;;;;;;4.30;99.90;;;;;;4855234;29;20033;-71
2022/12/01 09:34:02;;;;;;;25.33;13.75;;;4.30;99.90;;;;;;4866700;29;19925;-72
2022/12/01 09:36:29;;;;;;;28.90;14.38;;;4.40;99.90;;;;;;4849362;29;20141;-70
2022/12/01 09:38:55;;;;;;;26.45;13.50;;;4.50;99.90;;;;;;4849475;29;20130;-70
2022/12/01 09:41:44;;;;;;;28.85;14.10;;;4.60;99.90;;;;;;4849232;29;20042;-72
2022/12/01 09:44:13;;;;;;;28.98;14.38;;;4.60;99.90;;;;;;4849909;29;20029;-71
2022/12/01 09:46:53;;;;;;;26.35;13.40;;;4.60;99.90;;;;;;4848988;29;20345;-71
2022/12/01 09:49:40;;;;;;;27.40;14.20;;;4.60;99.90;;;;;;4849735;29;20068;-71
2022/12/01 09:52:11;;;;;;;31.25;14.90;;;4.60;99.90;;;;;;4849793;29;20037;-71
2022/12/01 09:54:37;;;;;;;24.77;13.93;;;4.60;99.90;;;;;;4849143;29;20042;-71
2022/12/01 09:57:03;;;;;;;28.10;13.95;;;4.70;99.90;;;;;;4850088;29;20045;-71
2022/12/01 09:59:38;;;;;;;28.98;14.73;;;4.70;99.90;;;;;;4849392;29;20038;-70
2022/12/01 10:02:25;;;;;;;26.80;14.10;;;4.80;99.90;;;;;;4848368;29;20244;-71
2022/12/01 10:04:53;;;;;;;29.25;14.35;;;4.80;99.90;;;;;;4833586;29;20038;-72
2022/12/01 10:07:45;;;;;;;25.92;13.75;;;4.90;99.90;;;;;;4852033;29;20034;-70
2022/12/01 10:10:16;;;;;;;26.60;13.77;;;4.80;99.90;;;;;;4830281;29;20038;-69
2022/12/01 10:12:45;;;;;;;29.85;13.85;;;4.90;99.90;;;;;;4837172;29;20079;-70
2022/12/01 10:15:29;;;;;;;28.98;13.70;;;4.80;99.90;;;;;;4836725;29;20030;-71
2022/12/01 10:18:21;;;;;;;29.20;14.25;;;4.70;99.90;;;;;;4834858;29;20034;-70
2022/12/01 10:21:24;;;;;;;28.95;14.68;;;4.80;99.90;;;;;;4818276;29;20101;-71
2022/12/01 10:24:28;;;;;;;25.13;14.70;;;4.70;99.90;;;;;;4834465;29;20098;-70
2022/12/01 10:27:24;;;;;;;23.73;13.07;;;4.70;99.90;;;;;;4823765;29;20054;-71
2022/12/01 10:30:05;;;;;;;30.55;14.48;;;4.60;99.90;;;;;;4834712;29;20041;-70
2022/12/01 10:32:49;;;;;;;24.45;14.00;;;4.60;99.90;;;;;;4838358;29;20308;-71
2022/12/01 10:35:16;;;;;;;25.17;13.73;;;4.60;99.90;;;;;;4870681;29;20104;-71
2022/12/01 10:37:44;;;;;;;26.48;14.52;;;4.60;99.90;;;;;;4857243;29;20044;-71
2022/12/01 10:40:14;;;;;;;29.63;15.00;;;4.70;99.90;;;;;;4852503;29;20054;-71
2022/12/01 10:42:46;;;;;;;26.35;13.38;;;4.70;99.90;;;;;;4851521;29;20479;-71
2022/12/01 10:45:25;;;;;;;26.30;13.82;;;4.70;99.90;;;;;;4851575;29;20034;-71
2022/12/01 10:48:19;;;;;;;27.05;14.18;;;4.70;99.90;;;;;;4852576;29;20038;-72
2022/12/01 10:50:53;;;;;;;26.00;14.43;;;4.70;99.90;;;;;;4852744;29;20312;-70
2022/12/01 10:53:27;;;;;;;25.90;14.02;;;4.70;99.90;;;;;;4852331;29;20041;-71
2022/12/01 10:56:08;;;;;;;25.70;13.40;;;4.70;99.90;;;;;;4853200;29;20038;-71
2022/12/01 10:58:47;;;;;;;27.15;14.35;;;4.70;99.90;;;;;;4851738;29;20328;-71
2022/12/01 11:01:24;;;;;;;29.02;14.02;;;4.70;99.90;;;;;;4852430;29;20036;-70
2022/12/01 11:03:56;;;;;;;26.67;13.27;;;4.70;99.90;;;;;;4852475;29;20041;-70
2022/12/01 11:06:29;;;;;;;25.45;13.63;;;4.80;99.90;;;;;;4851904;29;20037;-72
2022/12/01 11:09:04;;;;;;;28.92;15.48;;;4.80;99.90;;;;;;4851930;29;20227;-70
2022/12/01 11:11:37;;;;;;;24.95;13.73;;;4.80;99.90;;;;;;4850512;29;20034;-70
2022/12/01 11:14:21;;;;;;;24.88;13.52;;;4.80;99.90;;;;;;4852356;29;20060;-71
2022/12/01 11:16:49;;;;;;;23.60;12.73;;;4.90;99.90;;;;;;4851512;29;20395;-70
2022/12/01 11:19:35;;;;;;;29.38;14.75;;;4.90;99.90;;;;;;4851239;29;20392;-75
2022/12/01 11:22:20;;;;;;;23.42;13.27;;;5.00;99.90;;;;;;4851785;29;20309;-75
2022/12/01 11:24:52;;;;;;;28.52;14.60;;;5.10;99.90;;;;;;4866496;29;20038;-76
2022/12/01 11:27:33;;;;;;;23.65;13.88;;;5.20;99.90;;;;;;4851964;29;20193;-70
2022/12/01 11:30:24;;;;;;;26.33;14.43;;;5.20;99.90;;;;;;4852077;29;20065;-74
2022/12/01 11:32:56;;;;;;;28.33;13.55;;;5.10;99.90;;;;;;4835273;29;20093;-74
2022/12/01 11:35:36;;;;;;;27.27;14.10;;;5.10;99.90;;;;;;4851647;29;20033;-72
2022/12/01 11:38:05;;;;;;;26.30;14.02;;;5.10;99.90;;;;;;4852078;29;20030;-75
2022/12/01 11:40:35;;;;;;;25.58;13.88;;;5.10;99.90;;;;;;4851789;29;20093;-73
2022/12/01 11:43:05;;;;;;;27.40;14.68;;;5.10;99.90;;;;;;4851932;29;20030;-73
2022/12/01 11:45:35;;;;;;;26.77;13.73;;;5.10;99.90;;;;;;4851307;29;20033;-74
2022/12/01 11:48:06;;;;;;;23.90;12.88;;;5.10;99.90;;;;;;4851652;29;20090;-72
2022/12/01 11:50:37;;;;;;;26.80;13.48;;;5.20;99.90;;;;;;4851222;29;20100;-72
2022/12/01 11:53:23;;;;;;;23.75;13.48;;;5.30;99.90;;;;;;4851479;29;20241;-74
2022/12/01 11:55:49;;;;;;;26.92;13.05;;;5.30;99.90;;;;;;4851162;29;20192;-72
2022/12/01 11:58:15;;;;;;;28.48;14.20;;;5.30;99.90;;;;;;4842807;29;20031;-71
2022/12/01 12:00:53;;;;;;;26.10;13.85;;;5.30;99.90;;;;;;4850400;29;20061;-71
2022/12/01 12:03:35;;;;;;;30.25;14.45;;;5.30;99.90;;;;;;4850595;29;20046;-71
2022/12/01 12:06:15;;;;;;;25.58;14.07;;;5.20;99.90;;;;;;4851433;29;20144;-70
2022/12/01 12:08:56;;;;;;;26.27;13.65;;;5.20;99.90;;;;;;4850531;29;20197;-71
2022/12/01 12:12:05;;;;;;;25.98;13.73;;;5.30;99.90;;;;;;4850840;29;20034;-71
2022/12/01 12:14:39;;;;;;;24.27;13.45;;;5.30;99.90;;;;;;4832342;29;20118;-71
2022/12/01 12:17:57;;;;;;;23.98;13.25;;;5.40;99.90;;;;;;4816536;29;20147;-71
2022/12/01 12:20:55;;;;;;;23.77;13.35;;;5.40;99.90;;;;;;4832586;29;20026;-72
2022/12/01 12:23:59;;;;;;;26.30;14.05;;;5.50;99.90;;;;;;4839522;29;20220;-71
2022/12/01 12:26:26;;;;;;;24.55;13.05;;;5.60;99.90;;;;;;4839996;29;20026;-72
2022/12/01 12:29:11;;;;;;;25.55;13.07;;;5.70;99.90;;;;;;4850637;29;20086;-72
2022/12/01 12:35:46;;;;;;;21.75;12.77;;;5.70;99.90;;;;;;4847140;29;20037;-78
2022/12/01 12:38:49;;;;;;;26.00;13.52;;;5.70;99.90;;;;;;4845553;29;20034;-77
2022/12/01 12:41:43;;;;;;;24.48;12.77;;;5.80;99.90;;;;;;4831419;29;20050;-78
2022/12/01 12:44:45;;;;;;;24.10;12.68;;;5.90;99.90;;;;;;4815092;29;20283;-79
2022/12/01 12:47:40;;;;;;;24.30;12.98;;;6.00;99.90;;;;;;4823736;29;20085;-79
2022/12/01 12:50:23;;;;;;;23.38;12.45;;;6.20;99.90;;;;;;4809557;29;20099;-78
2022/12/01 12:52:54;;;;;;;23.13;12.82;;;6.30;99.90;;;;;;4830863;29;20059;-79
2022/12/01 12:55:32;;;;;;;23.77;12.77;;;6.30;99.90;;;;;;4846053;29;20056;-79
2022/12/01 12:58:09;;;;;;;23.40;11.85;;;6.40;99.90;;;;;;4847331;29;20041;-77
2022/12/01 13:00:42;;;;;;;23.27;12.17;;;6.30;99.90;;;;;;4849158;29;20046;-79
2022/12/01 13:03:29;;;;;;;21.08;11.50;;;6.20;99.90;;;;;;4850197;29;20076;-81
2022/12/01 13:06:31;;;;;;;22.88;12.38;;;6.10;99.90;;;;;;4849095;29;20041;-79
2022/12/01 13:09:10;;;;;;;23.40;12.70;;;6.10;99.90;;;;;;4849944;29;20033;-77
2022/12/01 13:12:14;;;;;;;20.88;11.90;;;6.10;99.90;;;;;;4833714;29;20050;-78
2022/12/01 13:14:51;;;;;;;25.77;13.07;;;6.00;99.90;;;;;;4832411;29;20050;-78
2022/12/01 13:17:27;;;;;;;23.92;13.60;;;6.00;99.90;;;;;;4833695;29;20242;-79
2022/12/01 13:19:56;;;;;;;21.15;11.82;;;6.00;99.90;;;;;;4834031;29;20067;-80
2022/12/01 13:22:31;;;;;;;22.77;12.27;;;5.90;99.90;;;;;;4833824;29;20029;-79
2022/12/01 13:24:59;;;;;;;23.20;12.50;;;5.90;99.90;;;;;;4834018;29;20059;-77
2022/12/01 13:27:30;;;;;;;23.88;11.90;;;5.90;99.90;;;;;;4848678;29;20038;-78
2022/12/01 13:29:56;;;;;;;24.13;11.82;;;5.90;99.90;;;;;;4818462;29;20072;-78
2022/12/01 13:32:42;;;;;;;25.95;12.95;;;5.90;99.90;;;;;;4848734;29;20037;-79
2022/12/01 13:42:22;;;;;;;23.27;12.23;;;5.80;99.90;;;;;;4832895;29;20113;-79
2022/12/01 13:44:58;;;;;;;22.88;12.60;;;5.70;99.90;;;;;;4834158;29;20030;-78
2022/12/01 13:51:03;;;;;;;23.02;11.77;;;5.70;99.90;;;;;;4838290;29;20034;-80
2022/12/01 13:53:35;;;;;;;22.90;12.82;;;5.70;99.90;;;;;;4833547;29;20071;-80
2022/12/01 13:56:16;;;;;;;23.48;12.20;;;5.70;99.90;;;;;;4833572;29;20038;-78
2022/12/01 13:59:20;;;;;;;22.15;11.70;;;5.60;99.90;;;;;;4834002;29;20037;-79
2022/12/01 14:01:46;;;;;;;22.70;11.90;;;5.60;99.90;;;;;;4850754;29;20061;-81
2022/12/01 14:04:15;;;;;;;30.42;12.35;;;5.60;99.90;;;;;;4850204;29;20093;-78
2022/12/01 14:06:47;;;;;;;23.27;11.80;;;5.50;99.90;;;;;;4818086;29;20038;-78
2022/12/01 14:09:29;;;;;;;21.67;12.60;;;5.50;99.90;;;;;;4849858;29;20042;-80
2022/12/01 14:12:02;;;;;;;26.45;12.00;;;5.60;99.90;;;;;;4850216;29;20032;-79
2022/12/01 14:14:34;;;;;;;20.67;11.98;;;5.60;99.90;;;;;;4833129;29;20033;-77
2022/12/01 14:17:02;;;;;;;22.25;11.73;;;5.50;99.90;;;;;;4850119;29;20072;-79
2022/12/01 14:19:51;;;;;;;21.75;12.18;;;5.40;99.90;;;;;;4792775;29;20117;-79
2022/12/01 14:22:40;;;;;;;21.75;11.60;;;5.50;99.90;;;;;;4792991;29;20050;-78
2022/12/01 14:25:24;;;;;;;24.33;12.10;;;5.50;99.90;;;;;;4794152;29;20092;-80
2022/12/01 14:27:53;;;;;;;25.85;12.30;;;5.40;99.90;;;;;;4778648;30;20270;-78
2022/12/01 14:33:46;;;;;;;23.50;11.50;;;5.30;99.90;;;;;;4782526;30;20039;-79
2022/12/01 14:36:22;;;;;;;22.35;11.85;;;5.40;99.90;;;;;;4778303;30;20058;-81
2022/12/01 14:39:13;;;;;;;25.23;12.45;;;5.30;99.90;;;;;;4793410;30;20046;-77
2022/12/01 14:41:55;;;;;;;22.58;12.20;;;5.30;99.90;;;;;;4783264;30;20055;-79
2022/12/01 14:44:24;;;;;;;27.13;13.13;;;5.30;99.90;;;;;;4781853;30;20047;-81
2022/12/01 14:46:55;;;;;;;;;;;5.30;99.90;;;;;;4779206;30;20119;-79
2022/12/01 14:49:28;;;;;;;24.48;11.68;;;5.30;99.90;;;;;;4795531;29;19959;-79
2022/12/01 15:15:55;;;;;;;22.50;12.98;;;5.20;99.90;;;;;;4834035;29;20033;-78
2022/12/01 15:18:39;;;;;;;22.90;11.82;;;5.20;99.90;;;;;;4833654;29;20087;-78
2022/12/01 15:21:12;;;;;;;25.23;12.45;;;5.20;99.90;;;;;;4819043;29;20041;-79
2022/12/01 15:23:56;;;;;;;23.30;12.10;;;5.20;99.90;;;;;;4821130;29;20090;-81
2022/12/01 15:26:34;;;;;;;23.75;12.23;;;5.20;99.90;;;;;;4823763;29;20061;-79
2022/12/01 15:29:22;;;;;;;;;;;5.20;99.90;;;;;;4826693;29;20026;-78
2022/12/01 15:31:56;;;;;;;;;;;5.20;99.90;;;;;;4825236;29;19928;-79
2022/12/01 15:34:49;;;;;;;23.73;12.55;;;5.20;99.90;;;;;;4827012;29;20262;-79
2022/12/01 15:37:32;;;;;;;25.67;14.18;;;5.30;99.90;;;;;;4806311;29;20030;-78
2022/12/01 15:40:19;;;;;;;28.13;13.82;;;5.30;99.90;;;;;;4802898;29;20049;-80
2022/12/01 15:43:36;;;;;;;21.95;12.18;;;5.20;99.90;;;;;;4806012;29;20038;-80
2022/12/01 15:46:15;;;;;;;25.70;12.63;;;5.20;99.90;;;;;;4779923;29;20057;-75
2022/12/01 15:49:05;;;;;;;22.00;11.90;;;5.20;99.90;;;;;;4817528;29;20391;-82
2022/12/01 15:51:31;;;;;;;22.45;12.38;;;5.20;99.90;;;;;;4802381;29;20034;-80
2022/12/01 15:57:56;;;;;;;24.45;13.05;;;5.20;99.90;;;;;;4744682;30;20043;-79
2022/12/01 16:00:40;;;;;;;24.10;13.15;;;5.20;99.90;;;;;;4744221;30;20040;-79
2022/12/01 16:03:21;;;;;;;24.02;12.13;;;5.20;99.90;;;;;;4744907;30;20055;-80
2022/12/01 16:06:12;;;;;;;23.02;11.80;;;5.20;99.90;;;;;;4791648;29;20052;-80
2022/12/01 16:08:42;;;;;;;23.63;12.98;;;5.20;99.90;;;;;;4817735;29;20358;-79
2022/12/01 16:11:23;;;;;;;25.85;12.38;;;5.20;99.90;;;;;;4835336;29;20090;-79
2022/12/01 16:14:30;;;;;;;23.38;12.32;;;5.20;99.90;;;;;;4867042;29;20097;-76
2022/12/01 16:16:57;;;;;;;24.25;13.25;;;5.20;99.90;;;;;;4851045;29;20030;-77
2022/12/01 16:19:31;;;;;;;28.38;13.18;;;5.30;99.90;;;;;;4817545;29;20027;-77
2022/12/01 16:22:08;;;;;;;22.40;12.18;;;5.20;99.90;;;;;;4850601;29;20041;-78
2022/12/01 16:24:35;;;;;;;23.48;12.77;;;5.20;99.90;;;;;;4839364;29;20127;-77
2022/12/01 16:27:21;;;;;;;24.73;12.35;;;5.20;99.90;;;;;;4822762;29;20034;-77
2022/12/01 16:29:49;;;;;;;25.08;12.75;;;5.10;99.90;;;;;;4817291;29;20026;-79
2022/12/01 16:32:27;;;;;;;26.30;14.50;;;5.20;99.90;;;;;;4825008;29;20073;-77
2022/12/01 16:34:53;;;;;;;30.83;16.80;;;5.20;99.90;;;;;;4850294;29;20089;-77
2022/12/01 16:37:21;;;;;;;25.57;14.20;;;5.10;99.90;;;;;;4834231;29;20034;-77
2022/12/01 16:39:47;;;;;;;25.15;14.10;;;5.10;99.90;;;;;;4833594;29;20297;-76
2022/12/01 16:45:33;;;;;;;27.05;13.43;;;5.20;99.90;;;;;;4850790;29;20191;-81
2022/12/01 16:48:05;;;;;;;26.92;14.07;;;5.20;99.90;;;;;;4848826;29;20030;-76
2022/12/01 16:50:32;;;;;;;24.92;13.35;;;5.20;99.90;;;;;;4840683;29;20062;-76
2022/12/01 16:53:20;;;;;;;26.67;14.27;;;5.20;99.90;;;;;;4817634;29;20321;-80
2022/12/01 16:55:55;;;;;;;26.17;13.85;;;5.20;99.90;;;;;;4829017;29;20029;-79
2022/12/01 16:58:43;;;;;;;31.20;14.88;;;5.20;99.90;;;;;;4834339;29;20034;-79
2022/12/01 17:01:12;;;;;;;26.77;14.25;;;5.20;99.90;;;;;;4835046;29;20029;-78
2022/12/01 17:03:41;;;;;;;28.48;14.10;;;5.10;99.90;;;;;;4833861;29;20219;-80
2022/12/01 17:06:07;;;;;;;30.15;14.93;;;5.10;99.90;;;;;;4860898;29;20048;-80
2022/12/01 17:08:33;;;;;;;28.25;13.65;;;5.10;99.90;;;;;;4853179;29;20412;-80
2022/12/01 17:11:04;;;;;;;27.48;13.95;;;5.00;99.90;;;;;;4853291;29;20117;-78
2022/12/01 17:13:58;;;;;;;25.48;13.13;;;5.00;99.90;;;;;;4856636;29;20287;-80
2022/12/01 17:16:36;;;;;;;27.80;14.95;;;5.00;99.90;;;;;;4869513;29;20044;-79
2022/12/01 17:19:05;;;;;;;;;;;5.00;99.90;;;;;;4839209;29;20054;-81
2022/12/01 17:22:00;;;;;;;26.98;12.98;;;5.00;99.90;;;;;;4883549;29;19956;-82
2022/12/01 17:25:01;;;;;;;;;;;;;;;;;;;;;
2022/12/01 17:27:38;;;;;;;20.00;9.93;;;5.00;99.90;;;;;;4852260;29;20112;-81
2022/12/01 17:30:08;;;;;;;24.90;13.70;;;5.00;99.90;;;;;;4861922;29;20124;-79
2022/12/01 17:32:34;;;;;;;26.83;13.90;;;5.00;99.90;;;;;;4816458;29;20030;-79
2022/12/01 17:34:59;;;;;;;27.67;14.82;;;5.00;99.90;;;;;;4819277;29;20036;-80
2022/12/01 17:37:43;;;;;;;26.60;14.00;;;4.90;99.90;;;;;;4818964;29;20029;-81
2022/12/01 17:40:13;;;;;;;27.50;14.07;;;4.90;99.90;;;;;;4836978;29;20062;-79
2022/12/01 17:43:14;;;;;;;27.10;13.88;;;4.90;99.90;;;;;;4836098;29;20065;-79
2022/12/01 17:50:10;;;;;;;24.40;13.30;;;4.90;99.90;;;;;;4853020;29;20025;-80
2022/12/01 17:52:42;;;;;;;28.48;13.48;;;4.90;99.90;;;;;;4867146;29;20041;-79
2022/12/01 17:55:11;;;;;;;25.08;13.55;;;4.90;99.90;;;;;;4833997;29;20228;-79
2022/12/01 17:57:37;;;;;;;25.33;13.77;;;4.90;99.90;;;;;;4850813;29;20081;-79
2022/12/01 18:00:16;;;;;;;27.17;14.20;;;4.90;99.90;;;;;;4834269;29;20186;-80
2022/12/01 18:03:13;;;;;;;24.35;12.73;;;4.90;99.90;;;;;;4848304;29;20033;-79
2022/12/01 18:05:39;;;;;;;24.08;12.75;;;4.90;99.90;;;;;;4849523;29;20049;-78
2022/12/01 18:08:05;;;;;;;27.27;15.05;;;4.90;99.90;;;;;;4850148;29;20034;-77
2022/12/01 18:10:43;;;;;;;28.15;13.75;;;4.90;99.90;;;;;;4849228;29;20021;-76
2022/12/01 18:13:09;;;;;;;28.88;14.68;;;4.90;99.90;;;;;;4850002;29;20417;-77
2022/12/01 18:16:04;;;;;;;25.58;13.35;;;5.00;99.90;;;;;;4849436;29;20030;-78
2022/12/01 18:18:30;;;;;;;25.55;13.45;;;5.00;99.90;;;;;;4863064;29;20030;-76
2022/12/01 18:20:56;;;;;;;26.17;12.70;;;5.00;99.90;;;;;;4849871;29;20030;-78
2022/12/01 18:23:22;;;;;;;27.58;12.90;;;5.00;99.90;;;;;;4833610;29;20033;-79
2022/12/01 18:25:50;;;;;;;24.13;13.30;;;4.90;99.90;;;;;;4848597;29;20045;-77
2022/12/01 18:28:16;;;;;;;24.75;12.95;;;5.00;99.90;;;;;;4836537;29;20033;-75
2022/12/01 18:30:45;;;;;;;28.00;13.93;;;5.00;99.90;;;;;;4853272;29;20025;-76
2022/12/01 18:33:12;;;;;;;25.40;13.60;;;5.00;99.90;;;;;;4840564;29;20140;-75
2022/12/01 18:35:43;;;;;;;25.98;13.23;;;5.00;99.90;;;;;;4822742;29;20216;-77
2022/12/01 18:38:10;;;;;;;25.10;13.52;;;5.00;99.90;;;;;;4853797;29;20037;-77
2022/12/01 18:40:40;;;;;;;24.83;12.63;;;4.90;99.90;;;;;;4836189;29;20034;-78
2022/12/01 18:43:09;;;;;;;24.73;12.75;;;5.00;99.90;;;;;;4836883;29;20038;-77
2022/12/01 18:45:39;;;;;;;24.90;13.38;;;5.00;99.90;;;;;;4836300;29;20052;-78
2022/12/01 18:48:07;;;;;;;26.50;14.70;;;4.90;99.90;;;;;;4837200;29;20109;-78
2022/12/01 18:50:34;;;;;;;26.50;14.18;;;4.90;99.90;;;;;;4852007;29;20208;-76
2022/12/01 18:53:06;;;;;;;24.08;13.25;;;5.00;99.90;;;;;;4852941;29;20147;-77
2022/12/01 18:55:47;;;;;;;26.27;14.77;;;4.90;99.90;;;;;;4837666;29;20101;-77
2022/12/01 18:58:23;;;;;;;23.77;12.68;;;5.00;99.90;;;;;;4851287;29;20044;-79
2022/12/01 19:01:02;;;;;;;24.73;13.00;;;5.00;99.90;;;;;;4837458;29;20025;-79
2022/12/01 19:03:40;;;;;;;26.83;14.27;;;5.00;99.90;;;;;;4821398;29;20030;-78
2022/12/01 19:10:12;;;;;;;28.33;13.88;;;5.00;99.90;;;;;;4852684;29;20098;-77
2022/12/01 19:16:13;;;;;;;26.35;14.70;;;5.10;99.90;;;;;;4795761;30;20047;-77
2022/12/01 19:18:40;;;;;;;27.00;14.50;;;5.10;99.90;;;;;;4833696;29;20109;-78
2022/12/01 19:21:08;;;;;;;29.50;15.30;;;5.10;99.90;;;;;;4852570;29;20034;-76
2022/12/01 19:23:33;;;;;;;25.27;13.85;;;5.10;99.90;;;;;;4850709;29;20109;-78
2022/12/01 19:26:32;;;;;;;31.90;14.80;;;5.10;99.90;;;;;;4852595;29;20376;-78
2022/12/01 19:29:06;;;;;;;;;;;5.10;99.90;;;;;;4867399;29;20101;-76
2022/12/01 19:31:35;;;;;;;25.35;13.10;;;5.10;99.90;;;;;;4835303;29;20135;-76
2022/12/01 19:34:14;;;;;;;27.45;14.52;;;5.10;99.90;;;;;;4843602;29;20034;-78
2022/12/01 19:36:45;;;;;;;26.52;13.98;;;5.10;99.90;;;;;;4835645;29;20052;-80
2022/12/01 19:39:16;;;;;;;25.33;13.00;;;5.10;99.90;;;;;;4834466;29;20065;-76
2022/12/01 19:41:42;;;;;;;25.23;13.90;;;5.10;99.90;;;;;;4834920;29;20034;-77
2022/12/01 19:44:31;;;;;;;24.58;13.38;;;5.00;99.90;;;;;;4834698;29;20415;-77
2022/12/01 19:47:08;;;;;;;25.45;13.05;;;5.00;99.90;;;;;;4850824;29;20335;-78
2022/12/01 19:49:37;;;;;;;25.77;14.05;;;5.00;99.90;;;;;;4850357;29;20057;-76
2022/12/01 19:52:40;;;;;;;24.00;13.07;;;5.00;99.90;;;;;;4852103;29;20215;-78
2022/12/01 19:58:24;;;;;;;29.15;14.20;;;5.00;99.90;;;;;;4850091;29;20227;-76
2022/12/01 20:00:53;;;;;;;26.80;14.18;;;5.00;99.90;;;;;;4834732;29;20030;-79
2022/12/01 20:03:21;;;;;;;27.00;14.15;;;5.00;99.90;;;;;;4835269;29;20061;-76
2022/12/01 20:06:27;;;;;;;26.58;13.45;;;4.90;99.90;;;;;;4849841;29;20067;-75
2022/12/01 20:09:00;;;;;;;29.33;13.50;;;4.90;99.90;;;;;;4812448;29;20042;-79
2022/12/01 20:11:31;;;;;;;25.40;13.75;;;4.90;99.90;;;;;;4865631;29;20303;-76
2022/12/01 20:14:06;;;;;;;27.52;14.43;;;4.80;99.90;;;;;;4859939;29;20050;-76
2022/12/01 20:17:32;;;;;;;27.02;13.70;;;4.90;99.90;;;;;;4830652;29;20037;-77
2022/12/01 20:20:06;;;;;;;23.02;13.75;;;5.00;99.90;;;;;;4807822;29;20312;-76
2022/12/01 20:26:20;;;;;;;25.90;14.10;;;4.90;99.90;;;;;;4851185;29;20058;-76
2022/12/01 20:28:50;;;;;;;28.45;14.45;;;5.00;99.90;;;;;;4850728;29;20029;-76